sensor_id;sensor_type;location;lat;lon;timestamp;pressure;altitude;pressure_sealevel;temperature;humidity
59315;BME280;46521;50.160;20.802;2023-05-23T00:11:43;99438.17;;;13.91;53.24
59315;BME280;46521;50.160;20.802;2023-05-23T00:21:46;99433.60;;;13.78;53.69
59315;BME280;46521;50.160;20.802;2023-05-23T00:31:56;99431.52;;;13.73;53.86
59315;BME280;46521;50.160;20.802;2023-05-23T00:41:57;99430.26;;;13.69;54.02
59315;BME280;46521;50.160;20.802;2023-05-23T00:51:59;99430.30;;;13.47;54.14
59315;BME280;46521;50.160;20.802;2023-05-23T01:02:01;99429.90;;;13.29;54.12
59315;BME280;46521;50.160;20.802;2023-05-23T01:22:53;99422.83;;;12.93;54.47
59315;BME280;46521;50.160;20.802;2023-05-23T01:33:02;99422.08;;;12.77;55.39
59315;BME280;46521;50.160;20.802;2023-05-23T01:43:05;99419.15;;;12.72;56.00
59315;BME280;46521;50.160;20.802;2023-05-23T01:53:07;99428.52;;;12.68;56.13
59315;BME280;46521;50.160;20.802;2023-05-23T02:03:10;99408.53;;;12.72;55.94
59315;BME280;46521;50.160;20.802;2023-05-23T02:13:11;99407.19;;;12.61;56.42
59315;BME280;46521;50.160;20.802;2023-05-23T02:23:13;99400.40;;;12.37;56.10
59315;BME280;46521;50.160;20.802;2023-05-23T02:33:14;99398.34;;;12.18;56.46
59315;BME280;46521;50.160;20.802;2023-05-23T02:43:16;99396.13;;;12.06;56.63
59315;BME280;46521;50.160;20.802;2023-05-23T02:53:18;99391.49;;;12.08;56.79
59315;BME280;46521;50.160;20.802;2023-05-23T03:03:19;99403.35;;;12.13;56.58
59315;BME280;46521;50.160;20.802;2023-05-23T03:13:22;99399.34;;;12.17;57.29
59315;BME280;46521;50.160;20.802;2023-05-23T03:23:23;99394.41;;;12.14;57.49
59315;BME280;46521;50.160;20.802;2023-05-23T03:33:25;99374.74;;;12.08;57.80
59315;BME280;46521;50.160;20.802;2023-05-23T03:43:26;99381.41;;;12.19;58.27
59315;BME280;46521;50.160;20.802;2023-05-23T03:53:28;99380.84;;;12.38;58.67
59315;BME280;46521;50.160;20.802;2023-05-23T04:03:29;99365.70;;;12.75;57.78
59315;BME280;46521;50.160;20.802;2023-05-23T04:13:34;99358.25;;;13.07;58.00
59315;BME280;46521;50.160;20.802;2023-05-23T04:23:37;99360.22;;;13.48;57.75
59315;BME280;46521;50.160;20.802;2023-05-23T04:33:38;99357.56;;;13.83;57.46
59315;BME280;46521;50.160;20.802;2023-05-23T04:43:39;99349.13;;;14.21;57.42
59315;BME280;46521;50.160;20.802;2023-05-23T04:53:42;99342.34;;;14.87;57.35
59315;BME280;46521;50.160;20.802;2023-05-23T05:03:44;99332.88;;;15.52;57.01
59315;BME280;46521;50.160;20.802;2023-05-23T05:13:46;99337.69;;;16.08;56.39
59315;BME280;46521;50.160;20.802;2023-05-23T05:23:47;99332.88;;;16.62;56.19
59315;BME280;46521;50.160;20.802;2023-05-23T05:33:48;99339.05;;;17.20;55.57
59315;BME280;46521;50.160;20.802;2023-05-23T05:43:50;99332.88;;;17.81;54.90
59315;BME280;46521;50.160;20.802;2023-05-23T05:53:51;99330.17;;;18.37;54.57
59315;BME280;46521;50.160;20.802;2023-05-23T06:03:53;99324.97;;;18.84;54.20
59315;BME280;46521;50.160;20.802;2023-05-23T06:13:54;99313.48;;;19.31;53.50
59315;BME280;46521;50.160;20.802;2023-05-23T06:23:56;99304.30;;;19.91;53.12
59315;BME280;46521;50.160;20.802;2023-05-23T06:33:57;99319.27;;;20.45;52.52
59315;BME280;46521;50.160;20.802;2023-05-23T06:43:59;99298.84;;;20.90;51.86
59315;BME280;46521;50.160;20.802;2023-05-23T06:54:00;99309.77;;;21.39;51.00
59315;BME280;46521;50.160;20.802;2023-05-23T07:04:02;99288.05;;;21.85;50.74
59315;BME280;46521;50.160;20.802;2023-05-23T07:14:03;99288.20;;;22.22;49.87
59315;BME280;46521;50.160;20.802;2023-05-23T07:24:07;99285.03;;;22.53;49.37
59315;BME280;46521;50.160;20.802;2023-05-23T07:34:09;99271.36;;;22.97;49.08
59315;BME280;46521;50.160;20.802;2023-05-23T07:44:10;99266.22;;;23.33;48.34
59315;BME280;46521;50.160;20.802;2023-05-23T07:54:12;99268.03;;;23.80;47.39
59315;BME280;46521;50.160;20.802;2023-05-23T08:04:13;99257.89;;;24.03;46.72
59315;BME280;46521;50.160;20.802;2023-05-23T08:14:15;99261.70;;;24.48;46.54
59315;BME280;46521;50.160;20.802;2023-05-23T08:24:16;99257.16;;;24.69;45.19
59315;BME280;46521;50.160;20.802;2023-05-23T08:44:20;99254.63;;;25.40;44.28
59315;BME280;46521;50.160;20.802;2023-05-23T08:54:22;99254.23;;;25.67;43.71
59315;BME280;46521;50.160;20.802;2023-05-23T09:04:23;99240.72;;;26.17;42.83
59315;BME280;46521;50.160;20.802;2023-05-23T09:14:25;99241.14;;;26.34;41.75
59315;BME280;46521;50.160;20.802;2023-05-23T09:24:33;99235.59;;;26.50;40.99
59315;BME280;46521;50.160;20.802;2023-05-23T09:34:39;99233.88;;;26.93;39.49
59315;BME280;46521;50.160;20.802;2023-05-23T09:44:42;99226.60;;;26.89;38.83
59315;BME280;46521;50.160;20.802;2023-05-23T09:54:43;99224.13;;;26.58;38.37
59315;BME280;46521;50.160;20.802;2023-05-23T10:04:47;99217.86;;;26.62;37.62
59315;BME280;46521;50.160;20.802;2023-05-23T10:14:54;99208.31;;;27.00;36.98
59315;BME280;46521;50.160;20.802;2023-05-23T10:24:57;99198.49;;;27.28;37.08
59315;BME280;46521;50.160;20.802;2023-05-23T10:35:21;99185.77;;;27.47;36.43
59315;BME280;46521;50.160;20.802;2023-05-23T10:45:24;99178.59;;;27.57;36.49
59315;BME280;46521;50.160;20.802;2023-05-23T10:55:30;99166.33;;;27.40;35.97
59315;BME280;46521;50.160;20.802;2023-05-23T11:05:32;99159.44;;;27.24;35.46
59315;BME280;46521;50.160;20.802;2023-05-23T11:15:41;99144.02;;;27.43;35.81
59315;BME280;46521;50.160;20.802;2023-05-23T11:25:50;99142.34;;;27.85;35.54
59315;BME280;46521;50.160;20.802;2023-05-23T11:35:52;99137.55;;;28.15;35.26
59315;BME280;46521;50.160;20.802;2023-05-23T11:45:53;99118.11;;;27.70;35.02
59315;BME280;46521;50.160;20.802;2023-05-23T11:55:56;99104.47;;;27.37;35.19
59315;BME280;46521;50.160;20.802;2023-05-23T12:06:00;99088.91;;;27.62;34.64
59315;BME280;46521;50.160;20.802;2023-05-23T12:16:04;99077.07;;;27.72;34.53
59315;BME280;46521;50.160;20.802;2023-05-23T12:26:06;99081.65;;;28.09;34.15
59315;BME280;46521;50.160;20.802;2023-05-23T12:36:08;99066.94;;;28.10;33.91
59315;BME280;46521;50.160;20.802;2023-05-23T12:46:09;99070.22;;;27.74;33.29
59315;BME280;46521;50.160;20.802;2023-05-23T12:56:11;99056.17;;;27.34;33.94
59315;BME280;46521;50.160;20.802;2023-05-23T13:06:13;99043.70;;;27.33;33.71
59315;BME280;46521;50.160;20.802;2023-05-23T13:16:14;99049.13;;;27.33;33.82
59315;BME280;46521;50.160;20.802;2023-05-23T13:26:16;99032.69;;;27.43;33.80
59315;BME280;46521;50.160;20.802;2023-05-23T13:36:17;99027.55;;;27.42;33.76
59315;BME280;46521;50.160;20.802;2023-05-23T13:46:19;99030.17;;;27.28;34.15
59315;BME280;46521;50.160;20.802;2023-05-23T13:56:20;99041.99;;;27.18;33.81
59315;BME280;46521;50.160;20.802;2023-05-23T14:06:22;99031.05;;;27.04;34.32
59315;BME280;46521;50.160;20.802;2023-05-23T14:16:23;99025.99;;;26.97;33.70
59315;BME280;46521;50.160;20.802;2023-05-23T14:26:25;99024.56;;;26.81;34.03
59315;BME280;46521;50.160;20.802;2023-05-23T14:36:27;99018.03;;;26.58;33.47
59315;BME280;46521;50.160;20.802;2023-05-23T14:46:29;99023.47;;;26.34;33.47
59315;BME280;46521;50.160;20.802;2023-05-23T14:56:30;99026.88;;;25.86;34.19
59315;BME280;46521;50.160;20.802;2023-05-23T15:06:32;99033.13;;;25.52;34.97
59315;BME280;46521;50.160;20.802;2023-05-23T15:16:33;99031.64;;;25.30;34.61
59315;BME280;46521;50.160;20.802;2023-05-23T15:26:36;99033.02;;;25.23;34.78
59315;BME280;46521;50.160;20.802;2023-05-23T15:36:39;99030.34;;;25.17;35.56
59315;BME280;46521;50.160;20.802;2023-05-23T15:46:40;99025.39;;;25.35;35.64
59315;BME280;46521;50.160;20.802;2023-05-23T15:56:42;99018.53;;;25.48;35.65
59315;BME280;46521;50.160;20.802;2023-05-23T16:06:43;99004.99;;;25.48;35.31
59315;BME280;46521;50.160;20.802;2023-05-23T16:16:45;99018.63;;;25.32;35.96
59315;BME280;46521;50.160;20.802;2023-05-23T16:26:46;99011.92;;;25.19;35.82
59315;BME280;46521;50.160;20.802;2023-05-23T16:36:48;99011.84;;;24.85;36.29
59315;BME280;46521;50.160;20.802;2023-05-23T16:46:50;99010.34;;;24.58;36.50
59315;BME280;46521;50.160;20.802;2023-05-23T16:56:52;99019.05;;;24.24;36.94
59315;BME280;46521;50.160;20.802;2023-05-23T17:06:53;99013.70;;;23.88;37.65
59315;BME280;46521;50.160;20.802;2023-05-23T17:16:55;99022.60;;;23.58;38.62
59315;BME280;46521;50.160;20.802;2023-05-23T17:26:57;99020.69;;;23.33;39.34
59315;BME280;46521;50.160;20.802;2023-05-23T17:36:59;99016.30;;;23.06;39.71
59315;BME280;46521;50.160;20.802;2023-05-23T17:47:00;99015.13;;;22.76;40.89
59315;BME280;46521;50.160;20.802;2023-05-23T17:57:02;99034.42;;;22.53;42.10
59315;BME280;46521;50.160;20.802;2023-05-23T18:07:04;99048.33;;;22.34;42.52
59315;BME280;46521;50.160;20.802;2023-05-23T18:17:06;99042.55;;;22.20;42.55
59315;BME280;46521;50.160;20.802;2023-05-23T18:27:08;99055.53;;;21.91;44.23
59315;BME280;46521;50.160;20.802;2023-05-23T18:37:09;99071.59;;;21.26;45.87
59315;BME280;46521;50.160;20.802;2023-05-23T18:47:11;99088.73;;;20.76;47.16
59315;BME280;46521;50.160;20.802;2023-05-23T18:57:13;99104.27;;;20.34;48.08
59315;BME280;46521;50.160;20.802;2023-05-23T19:07:14;99107.33;;;20.09;49.43
59315;BME280;46521;50.160;20.802;2023-05-23T19:17:16;99119.38;;;19.90;50.75
59315;BME280;46521;50.160;20.802;2023-05-23T19:27:17;99126.88;;;19.76;51.68
59315;BME280;46521;50.160;20.802;2023-05-23T19:37:19;99123.34;;;19.58;52.47
59315;BME280;46521;50.160;20.802;2023-05-23T19:47:22;99119.57;;;19.42;53.47
59315;BME280;46521;50.160;20.802;2023-05-23T19:57:23;99117.78;;;19.48;54.14
59315;BME280;46521;50.160;20.802;2023-05-23T20:07:26;99121.77;;;19.45;55.01
59315;BME280;46521;50.160;20.802;2023-05-23T20:17:27;99131.81;;;19.38;55.52
59315;BME280;46521;50.160;20.802;2023-05-23T20:27:29;99128.24;;;19.33;56.17
59315;BME280;46521;50.160;20.802;2023-05-23T20:37:31;99130.33;;;19.31;56.68
59315;BME280;46521;50.160;20.802;2023-05-23T20:47:33;99131.89;;;19.15;57.41
59315;BME280;46521;50.160;20.802;2023-05-23T20:57:37;99136.92;;;18.99;58.05
59315;BME280;46521;50.160;20.802;2023-05-23T21:07:39;99153.84;;;18.76;58.47
59315;BME280;46521;50.160;20.802;2023-05-23T21:17:40;99156.84;;;18.68;59.00
59315;BME280;46521;50.160;20.802;2023-05-23T21:27:42;99170.13;;;18.63;59.22
59315;BME280;46521;50.160;20.802;2023-05-23T21:37:43;99167.34;;;18.58;59.46
59315;BME280;46521;50.160;20.802;2023-05-23T21:47:45;99163.25;;;18.55;59.98
59315;BME280;46521;50.160;20.802;2023-05-23T21:57:46;99177.66;;;18.30;60.94
59315;BME280;46521;50.160;20.802;2023-05-23T22:07:48;99177.04;;;18.16;61.65
59315;BME280;46521;50.160;20.802;2023-05-23T22:17:49;99189.84;;;18.14;62.23
59315;BME280;46521;50.160;20.802;2023-05-23T22:27:52;99194.05;;;18.10;62.57
59315;BME280;46521;50.160;20.802;2023-05-23T22:37:54;99179.59;;;18.11;62.99
59315;BME280;46521;50.160;20.802;2023-05-23T22:47:55;99182.50;;;18.10;63.61
59315;BME280;46521;50.160;20.802;2023-05-23T22:57:58;99181.13;;;18.07;63.97
59315;BME280;46521;50.160;20.802;2023-05-23T23:07:59;99178.17;;;17.97;64.22
59315;BME280;46521;50.160;20.802;2023-05-23T23:18:00;99193.55;;;17.83;64.97
59315;BME280;46521;50.160;20.802;2023-05-23T23:28:02;99197.91;;;17.65;65.44
59315;BME280;46521;50.160;20.802;2023-05-23T23:38:04;99200.73;;;17.52;65.80
59315;BME280;46521;50.160;20.802;2023-05-23T23:48:05;99198.59;;;17.42;66.01
